Patricia Ann — WDE2845 — position and weather

sailwx.info

Track history (hours):
 
Tides and Currents Weather Stations Pressure Air Temp Water Temp Dewpoint Dewpoint Depression Visibility Wind Speed Wind Dir Waves Ship Positions

Patricia Ann

Owner: AmNav Maritime Services, Oakland, CA. More information available from US FCC via Universal Licensing System and Coast Guard Vessel Documentation Center.

Last reported at 2016-May-05 21:33 UTC. Time now 2016-May-05 21:56 UTC.
Position N 37°54' W 122°25'.

Length 24 m; draft 4.9 m.

Type: Tug. MMSI: 367330510.

Date/timePositionNaut miles runAvg speedWind from/ knotsBaromVisibWave heightAir tempDewpointWater temp
2016-May-05 21:33N 37°54' W 122°25'2 1.5
2016-May-05 20:23N 37°56' W 122°26'2 2.4
2016-May-05 19:29N 37°54' W 122°25'7 7.0
2016-May-05 18:33N 37°49' W 122°20'1 0.9
2016-May-05 17:33N 37°49' W 122°19'0 0.0
2016-May-05 16:33N 37°49' W 122°19'0 0.0
2016-May-05 15:33N 37°49' W 122°19'1 0.9
2016-May-05 14:34N 37°49' W 122°19'1 0.8
2016-May-05 13:33N 37°48' W 122°20'1 0.8
2016-May-05 12:33N 37°49' W 122°20'2 1.8
2016-May-05 11:33N 37°48' W 122°22'3 2.9
2016-May-05 10:33N 37°49' W 122°19'0 0.0
2016-May-05 09:33N 37°49' W 122°19'0 0.0
2016-May-05 08:33N 37°49' W 122°19'0 0.0
2016-May-05 07:33N 37°49' W 122°19'0 0.0
2016-May-05 06:33N 37°49' W 122°19'0 0.0
2016-May-05 05:33N 37°49' W 122°19'0 0.0
2016-May-05 04:33N 37°49' W 122°19'0 0.0
2016-May-05 03:33N 37°49' W 122°19'0 0.0
2016-May-05 02:33N 37°49' W 122°19'2 1.6
2016-May-05 01:33N 37°48' W 122°19'0 0.0
2016-May-05 00:33N 37°48' W 122°19'2 1.6
2016-May-04 23:33N 37°49' W 122°19'0 0.0
2016-May-04 22:33N 37°49' W 122°19'0 0.0
2016-May-04 21:33N 37°49' W 122°19'0 0.0
2016-May-04 20:33N 37°49' W 122°19'0 0.0
2016-May-04 19:32N 37°49' W 122°19'0 0.0
2016-May-04 18:33N 37°49' W 122°19'0 0.0
2016-May-04 17:33N 37°49' W 122°19'0 0.0
2016-May-04 16:33N 37°49' W 122°19'0 0.0
2016-May-04 15:33N 37°49' W 122°19'0 0.0
2016-May-04 14:33N 37°49' W 122°19'1 1.1
2016-May-04 13:33N 37°49' W 122°20'1 1.0
2016-May-04 12:33N 37°48' W 122°19'1 1.5
2016-May-04 11:34N 37°48' W 122°17'1 1.5
2016-May-04 10:34N 37°48' W 122°19'2 1.5
2016-May-04 09:33N 37°49' W 122°19'0 0.0
2016-May-04 08:33N 37°49' W 122°19'0 0.0
2016-May-04 07:33N 37°49' W 122°19'0 0.0
2016-May-04 06:33N 37°49' W 122°19'3 2.6
2016-May-04 05:33N 37°50' W 122°22'5 5.0
2016-May-04 04:33N 37°55' W 122°22'0 0.2
2016-May-04 03:33N 37°55' W 122°22'0 0.2
2016-May-04 02:32N 37°55' W 122°22'1 1.1
2016-May-04 01:33N 37°54' W 122°23'1 1.1
2016-May-04 00:32N 37°55' W 122°25'8 8.2
2016-May-03 23:33N 37°48' W 122°19'2 2.4
2016-May-03 22:33N 37°48' W 122°22'3 2.9
2016-May-03 21:33N 37°49' W 122°19'0 0.0
2016-May-03 20:32N 37°49' W 122°19'0 0.0
2016-May-03 19:33N 37°49' W 122°19'0 0.0
2016-May-03 18:33N 37°49' W 122°19'0 0.0
2016-May-03 17:33N 37°49' W 122°19'2 1.7
2016-May-03 16:33N 37°48' W 122°19'0 0.3
2016-May-03 15:33N 37°48' W 122°18'1 0.6
2016-May-03 14:33N 37°48' W 122°19'1 1.1
2016-May-03 13:33N 37°48' W 122°20'1 1.4
2016-May-03 12:33N 37°48' W 122°22'2 2.3
2016-May-03 11:33N 37°48' W 122°19'1 1.3
2016-May-03 10:34N 37°48' W 122°21'2 2.5
2016-May-03 09:33N 37°48' W 122°18'0 0.1
2016-May-03 08:33N 37°48' W 122°18'2 2.3
2016-May-03 07:33N 37°48' W 122°21'0 0.0
2016-May-03 06:33N 37°48' W 122°21'3 2.6
2016-May-03 05:34N 37°48' W 122°24'4 4.2
2016-May-03 04:33N 37°49' W 122°19'0 0.0
2016-May-03 03:33N 37°49' W 122°19'0 0.0
2016-May-03 02:33N 37°49' W 122°19'2 1.6
2016-May-03 01:33N 37°48' W 122°19'1 0.9
2016-May-03 00:34N 37°49' W 122°19'1 0.8
2016-May-02 23:33N 37°48' W 122°20'0 0.1
2016-May-02 22:33N 37°48' W 122°21'2 1.8
2016-May-02 21:33N 37°48' W 122°18'2 2.1
2016-May-02 20:33N 37°48' W 122°21'2 2.0
2016-May-02 19:32N 37°49' W 122°19'0 0.0
2016-May-02 18:33N 37°49' W 122°19'0 0.0
2016-May-02 17:33N 37°49' W 122°19'0 0.0
2016-May-02 16:33N 37°49' W 122°19'0 0.0
2016-May-02 15:33N 37°49' W 122°19'1 0.6
2016-May-02 14:34N 37°49' W 122°19'2 1.9
2016-May-02 13:33N 37°48' W 122°17'1 0.9
2016-May-02 12:33N 37°48' W 122°19'0 0.0
2016-May-02 11:33N 37°48' W 122°19'0 0.0
2016-May-02 10:33N 37°48' W 122°19'0 0.0
2016-May-02 09:33N 37°48' W 122°19'0 0.0
2016-May-02 08:33N 37°48' W 122°19'1 0.8
2016-May-02 07:33N 37°48' W 122°18'2 2.5
2016-May-02 06:33N 37°48' W 122°21'0 0.0
2016-May-02 05:33N 37°48' W 122°21'0 0.0
2016-May-02 04:33N 37°48' W 122°21'0 0.0
2016-May-02 03:33N 37°48' W 122°21'0 0.0
2016-May-02 02:33N 37°48' W 122°21'0 0.0
2016-May-02 01:33N 37°48' W 122°21'0 0.0
2016-May-02 00:33N 37°48' W 122°21'0 0.2
2016-May-01 23:33N 37°48' W 122°20'0 0.4
2016-May-01 22:33N 37°49' W 122°20'1 1.2
2016-May-01 21:33N 37°49' W 122°19'0 0.0
2016-May-01 20:33N 37°49' W 122°19'0 0.0
2016-May-01 19:33N 37°49' W 122°19'0 0.0
2016-May-01 18:33N 37°49' W 122°19'0 0.0
2016-May-01 17:33N 37°49' W 122°19'1 1.1
2016-May-01 16:33N 37°49' W 122°20'1 0.7
2016-May-01 15:33N 37°48' W 122°21'0 0.0
2016-May-01 14:32N 37°48' W 122°21'3 2.8
2016-May-01 13:33N 37°48' W 122°24'0 0.3
2016-May-01 12:33N 37°49' W 122°24'0 0.0
2016-May-01 11:33N 37°49' W 122°24'0 0.0
2016-May-01 10:33N 37°49' W 122°24'3 3.1
2016-May-01 09:34N 37°48' W 122°20'0 0.1
2016-May-01 08:33N 37°48' W 122°21'0 0.0
2016-May-01 07:33N 37°48' W 122°21'0 0.0
2016-May-01 06:33N 37°48' W 122°21'0 0.0
2016-May-01 05:33N 37°48' W 122°21'0 0.0
2016-May-01 04:33N 37°48' W 122°21'0 0.0
2016-May-01 03:33N 37°48' W 122°21'2 2.0
2016-May-01 02:33N 37°48' W 122°18'1 0.9
2016-May-01 01:33N 37°48' W 122°19'0 0.0
2016-May-01 00:33N 37°48' W 122°19'2 1.5
2016-Apr-30 23:33N 37°49' W 122°19'0 0.0
2016-Apr-30 22:33N 37°49' W 122°19'0 0.0
2016-Apr-30 21:33N 37°49' W 122°19'0 0.0
2016-Apr-30 20:33N 37°49' W 122°19'0 0.0
2016-Apr-30 19:33N 37°49' W 122°19'0 0.0
2016-Apr-30 18:32N 37°49' W 122°19'0 0.0
2016-Apr-30 17:33N 37°49' W 122°19'0 0.0
2016-Apr-30 16:33N 37°49' W 122°19'0 0.0
2016-Apr-30 15:32N 37°49' W 122°19'0 0.0
2016-Apr-30 14:33N 37°49' W 122°19'0 0.0
2016-Apr-30 13:33N 37°49' W 122°19'1 1.5
2016-Apr-30 12:33N 37°49' W 122°20'2 1.6
2016-Apr-30 11:33N 37°48' W 122°22'3 3.0
2016-Apr-30 10:33N 37°49' W 122°19'0 0.0
2016-Apr-30 09:33N 37°49' W 122°19'0 0.0
2016-Apr-30 08:33N 37°49' W 122°19'0 0.0
2016-Apr-30 07:33N 37°49' W 122°19'0 0.0
2016-Apr-30 06:33N 37°49' W 122°19'0 0.0
2016-Apr-30 05:33N 37°49' W 122°19'0 0.0
2016-Apr-30 04:33N 37°49' W 122°19'0 0.0
2016-Apr-30 03:33N 37°49' W 122°19'0 0.0
2016-Apr-30 02:33N 37°49' W 122°19'0 0.0
2016-Apr-30 01:33N 37°49' W 122°19'7 6.7
2016-Apr-30 00:33N 37°54' W 122°25'3 2.7
2016-Apr-29 23:33N 37°55' W 122°22'3 2.4
2016-Apr-29 22:15N 37°54' W 122°25'2 3.0
2016-Apr-29 21:33N 37°52' W 122°24'5 4.7
2016-Apr-29 20:33N 37°49' W 122°19'0 0.0
2016-Apr-29 19:32N 37°49' W 122°19'0 0.0
2016-Apr-29 18:33N 37°49' W 122°19'0 0.0
2016-Apr-29 17:33N 37°49' W 122°19'0 0.0
2016-Apr-29 16:30N 37°49' W 122°19'0 0.0
2016-Apr-29 13:33N 37°49' W 122°19'0 0.0
2016-Apr-29 12:32N 37°49' W 122°19'0 0.0
2016-Apr-29 11:33N 37°49' W 122°19'0 0.0
2016-Apr-29 10:33N 37°49' W 122°19'0 0.0
2016-Apr-29 09:33N 37°49' W 122°19'0 0.0
2016-Apr-29 08:33N 37°49' W 122°19'0 0.0
2016-Apr-29 07:33N 37°49' W 122°19'0 0.0
2016-Apr-29 06:33N 37°49' W 122°19'0 0.0
2016-Apr-29 05:33N 37°49' W 122°19'0 0.0
2016-Apr-29 04:33N 37°49' W 122°19'0 0.0
2016-Apr-29 03:33N 37°49' W 122°19'0 0.0
2016-Apr-29 02:33N 37°49' W 122°19'0 0.0
2016-Apr-29 01:33N 37°49' W 122°19'0 0.0
2016-Apr-29 00:33N 37°49' W 122°19'2 1.6
2016-Apr-28 23:33N 37°48' W 122°19'1 0.6
2016-Apr-28 22:34N 37°48' W 122°20'2 1.7
2016-Apr-28 21:33N 37°49' W 122°19'0 0.0
2016-Apr-28 20:33N 37°49' W 122°19'0 0.0
2016-Apr-28 19:33N 37°49' W 122°19'0 0.0
2016-Apr-28 18:33N 37°49' W 122°19'0 0.0
2016-Apr-28 17:33N 37°49' W 122°19'0 0.0
2016-Apr-28 16:33N 37°49' W 122°19'0 0.0
2016-Apr-28 15:33N 37°49' W 122°19'0 0.0
2016-Apr-28 14:33N 37°49' W 122°19'0 0.0
2016-Apr-28 13:33N 37°49' W 122°19'0 0.0
2016-Apr-28 12:33N 37°49' W 122°19'0 0.0
2016-Apr-28 11:33N 37°49' W 122°19'0 0.0
2016-Apr-28 10:33N 37°49' W 122°19'0 0.0
2016-Apr-28 09:33N 37°49' W 122°19'0 0.0
2016-Apr-28 08:33N 37°49' W 122°19'0 0.0
2016-Apr-28 07:33N 37°49' W 122°19'0 0.0
2016-Apr-28 06:33N 37°49' W 122°19'0 0.0
2016-Apr-28 05:33N 37°49' W 122°19'0 0.0
2016-Apr-28 04:33N 37°49' W 122°19'2 1.6
2016-Apr-28 03:33N 37°48' W 122°19'2 1.9
2016-Apr-28 02:33N 37°48' W 122°21'1 0.8
2016-Apr-28 01:33N 37°48' W 122°20'1 0.6
2016-Apr-28 00:33N 37°48' W 122°20'2 1.6
2016-Apr-27 23:33N 37°49' W 122°19'0 0.0
2016-Apr-27 22:33N 37°49' W 122°19'0 0.0
2016-Apr-27 21:33N 37°49' W 122°19'0 0.0
2016-Apr-27 20:33N 37°49' W 122°19'0 0.0
2016-Apr-27 19:33N 37°49' W 122°19'0 0.0
2016-Apr-27 18:33N 37°49' W 122°19'0 0.0
2016-Apr-27 17:33N 37°49' W 122°19'2 1.5
2016-Apr-27 16:33N 37°48' W 122°19'1 0.7
2016-Apr-27 15:33N 37°48' W 122°19'1 0.9
2016-Apr-27 14:33N 37°48' W 122°20'1 0.9
2016-Apr-27 13:33N 37°48' W 122°19'0 0.2
2016-Apr-27 12:33N 37°48' W 122°19'1 1.1
2016-Apr-27 11:33N 37°48' W 122°17'2 2.4
2016-Apr-27 10:33N 37°49' W 122°20'0 0.0
2016-Apr-27 09:33N 37°49' W 122°20'0 0.0
2016-Apr-27 08:33N 37°49' W 122°20'0 0.0
2016-Apr-27 07:33N 37°49' W 122°20'0 0.0
2016-Apr-27 06:33N 37°49' W 122°20'0 0.0
2016-Apr-27 05:33N 37°49' W 122°20'0 0.0
2016-Apr-27 04:33N 37°49' W 122°20'0 0.0
2016-Apr-27 03:33N 37°49' W 122°20'1 0.7
2016-Apr-27 02:33N 37°48' W 122°20'1 1.4
2016-Apr-27 01:33N 37°48' W 122°18'0 0.4
2016-Apr-27 00:33N 37°48' W 122°19'0 0.1
2016-Apr-26 23:33N 37°48' W 122°19'1 1.2
2016-Apr-26 22:33N 37°48' W 122°20'1 0.7
2016-Apr-26 21:33N 37°49' W 122°20'0 0.0
2016-Apr-26 20:33N 37°49' W 122°20'0 0.0
2016-Apr-26 19:33N 37°49' W 122°20'0 0.0
2016-Apr-26 18:33N 37°49' W 122°20'0 0.0
2016-Apr-26 17:33N 37°49' W 122°20'0 0.0
2016-Apr-26 16:33N 37°49' W 122°20'1 0.5
2016-Apr-26 15:33N 37°48' W 122°21'2 1.7
2016-Apr-26 14:34N 37°48' W 122°19'1 1.2
2016-Apr-26 13:33N 37°49' W 122°20'1 0.8
2016-Apr-26 12:33N 37°48' W 122°20'1 0.7
2016-Apr-26 11:33N 37°48' W 122°19'0 0.0
2016-Apr-26 10:33N 37°48' W 122°19'0 0.0
2016-Apr-26 09:33N 37°48' W 122°19'0 0.1
2016-Apr-26 08:33N 37°48' W 122°19'1 0.6
2016-Apr-26 07:33N 37°48' W 122°19'2 1.7
2016-Apr-26 06:33N 37°49' W 122°19'0 0.0
2016-Apr-26 05:33N 37°49' W 122°19'0 0.0
2016-Apr-26 04:33N 37°49' W 122°19'0 0.0
2016-Apr-26 03:33N 37°49' W 122°19'0 0.0
2016-Apr-26 02:33N 37°49' W 122°19'2 1.6
2016-Apr-26 01:33N 37°48' W 122°19'1 1.3
2016-Apr-26 00:34N 37°49' W 122°20'1 1.1
2016-Apr-25 23:33N 37°49' W 122°19'0 0.0
2016-Apr-25 22:33N 37°49' W 122°19'1 1.2
2016-Apr-25 21:33N 37°49' W 122°20'  
Track history (hours):
 
Tides and Currents Weather Stations Pressure Air Temp Water Temp Dewpoint Dewpoint Depression Visibility Wind Speed Wind Dir Waves Ship Positions

Patricia Ann

Owner: AmNav Maritime Services, Oakland, CA. More information available from US FCC via Universal Licensing System and Coast Guard Vessel Documentation Center.

Last reported at 2016-May-05 21:33 UTC. Time now 2016-May-05 21:56 UTC.
Position N 37°54' W 122°25'.

Length 24 m; draft 4.9 m.

Type: Tug. MMSI: 367330510.

Date/timePositionNaut miles runAvg speedWind from/ knotsBaromVisibWave heightAir tempDewpointWater temp
2016-May-05 21:33N 37°54' W 122°25'2 1.5
2016-May-05 20:23N 37°56' W 122°26'2 2.4
2016-May-05 19:29N 37°54' W 122°25'7 7.0
2016-May-05 18:33N 37°49' W 122°20'1 0.9
2016-May-05 17:33N 37°49' W 122°19'0 0.0
2016-May-05 16:33N 37°49' W 122°19'0 0.0
2016-May-05 15:33N 37°49' W 122°19'1 0.9
2016-May-05 14:34N 37°49' W 122°19'1 0.8
2016-May-05 13:33N 37°48' W 122°20'1 0.8
2016-May-05 12:33N 37°49' W 122°20'2 1.8
2016-May-05 11:33N 37°48' W 122°22'3 2.9
2016-May-05 10:33N 37°49' W 122°19'0 0.0
2016-May-05 09:33N 37°49' W 122°19'0 0.0
2016-May-05 08:33N 37°49' W 122°19'0 0.0
2016-May-05 07:33N 37°49' W 122°19'0 0.0
2016-May-05 06:33N 37°49' W 122°19'0 0.0
2016-May-05 05:33N 37°49' W 122°19'0 0.0
2016-May-05 04:33N 37°49' W 122°19'0 0.0
2016-May-05 03:33N 37°49' W 122°19'0 0.0
2016-May-05 02:33N 37°49' W 122°19'2 1.6
2016-May-05 01:33N 37°48' W 122°19'0 0.0
2016-May-05 00:33N 37°48' W 122°19'2 1.6
2016-May-04 23:33N 37°49' W 122°19'0 0.0
2016-May-04 22:33N 37°49' W 122°19'0 0.0
2016-May-04 21:33N 37°49' W 122°19'0 0.0
2016-May-04 20:33N 37°49' W 122°19'0 0.0
2016-May-04 19:32N 37°49' W 122°19'0 0.0
2016-May-04 18:33N 37°49' W 122°19'0 0.0
2016-May-04 17:33N 37°49' W 122°19'0 0.0
2016-May-04 16:33N 37°49' W 122°19'0 0.0
2016-May-04 15:33N 37°49' W 122°19'0 0.0
2016-May-04 14:33N 37°49' W 122°19'1 1.1
2016-May-04 13:33N 37°49' W 122°20'1 1.0
2016-May-04 12:33N 37°48' W 122°19'1 1.5
2016-May-04 11:34N 37°48' W 122°17'1 1.5
2016-May-04 10:34N 37°48' W 122°19'2 1.5
2016-May-04 09:33N 37°49' W 122°19'0 0.0
2016-May-04 08:33N 37°49' W 122°19'0 0.0
2016-May-04 07:33N 37°49' W 122°19'0 0.0
2016-May-04 06:33N 37°49' W 122°19'3 2.6
2016-May-04 05:33N 37°50' W 122°22'5 5.0
2016-May-04 04:33N 37°55' W 122°22'0 0.2
2016-May-04 03:33N 37°55' W 122°22'0 0.2
2016-May-04 02:32N 37°55' W 122°22'1 1.1
2016-May-04 01:33N 37°54' W 122°23'1 1.1
2016-May-04 00:32N 37°55' W 122°25'8 8.2
2016-May-03 23:33N 37°48' W 122°19'2 2.4
2016-May-03 22:33N 37°48' W 122°22'3 2.9
2016-May-03 21:33N 37°49' W 122°19'0 0.0
2016-May-03 20:32N 37°49' W 122°19'0 0.0
2016-May-03 19:33N 37°49' W 122°19'0 0.0
2016-May-03 18:33N 37°49' W 122°19'0 0.0
2016-May-03 17:33N 37°49' W 122°19'2 1.7
2016-May-03 16:33N 37°48' W 122°19'0 0.3
2016-May-03 15:33N 37°48' W 122°18'1 0.6
2016-May-03 14:33N 37°48' W 122°19'1 1.1
2016-May-03 13:33N 37°48' W 122°20'1 1.4
2016-May-03 12:33N 37°48' W 122°22'2 2.3
2016-May-03 11:33N 37°48' W 122°19'1 1.3
2016-May-03 10:34N 37°48' W 122°21'2 2.5
2016-May-03 09:33N 37°48' W 122°18'0 0.1
2016-May-03 08:33N 37°48' W 122°18'2 2.3
2016-May-03 07:33N 37°48' W 122°21'0 0.0
2016-May-03 06:33N 37°48' W 122°21'3 2.6
2016-May-03 05:34N 37°48' W 122°24'4 4.2
2016-May-03 04:33N 37°49' W 122°19'0 0.0
2016-May-03 03:33N 37°49' W 122°19'0 0.0
2016-May-03 02:33N 37°49' W 122°19'2 1.6
2016-May-03 01:33N 37°48' W 122°19'1 0.9
2016-May-03 00:34N 37°49' W 122°19'1 0.8
2016-May-02 23:33N 37°48' W 122°20'0 0.1
2016-May-02 22:33N 37°48' W 122°21'2 1.8
2016-May-02 21:33N 37°48' W 122°18'2 2.1
2016-May-02 20:33N 37°48' W 122°21'2 2.0
2016-May-02 19:32N 37°49' W 122°19'0 0.0
2016-May-02 18:33N 37°49' W 122°19'0 0.0
2016-May-02 17:33N 37°49' W 122°19'0 0.0
2016-May-02 16:33N 37°49' W 122°19'0 0.0
2016-May-02 15:33N 37°49' W 122°19'1 0.6
2016-May-02 14:34N 37°49' W 122°19'2 1.9
2016-May-02 13:33N 37°48' W 122°17'1 0.9
2016-May-02 12:33N 37°48' W 122°19'0 0.0
2016-May-02 11:33N 37°48' W 122°19'0 0.0
2016-May-02 10:33N 37°48' W 122°19'0 0.0
2016-May-02 09:33N 37°48' W 122°19'0 0.0
2016-May-02 08:33N 37°48' W 122°19'1 0.8
2016-May-02 07:33N 37°48' W 122°18'2 2.5
2016-May-02 06:33N 37°48' W 122°21'0 0.0
2016-May-02 05:33N 37°48' W 122°21'0 0.0
2016-May-02 04:33N 37°48' W 122°21'0 0.0
2016-May-02 03:33N 37°48' W 122°21'0 0.0
2016-May-02 02:33N 37°48' W 122°21'0 0.0
2016-May-02 01:33N 37°48' W 122°21'0 0.0
2016-May-02 00:33N 37°48' W 122°21'0 0.2
2016-May-01 23:33N 37°48' W 122°20'0 0.4
2016-May-01 22:33N 37°49' W 122°20'1 1.2
2016-May-01 21:33N 37°49' W 122°19'0 0.0
2016-May-01 20:33N 37°49' W 122°19'0 0.0
2016-May-01 19:33N 37°49' W 122°19'0 0.0
2016-May-01 18:33N 37°49' W 122°19'0 0.0
2016-May-01 17:33N 37°49' W 122°19'1 1.1
2016-May-01 16:33N 37°49' W 122°20'1 0.7
2016-May-01 15:33N 37°48' W 122°21'0 0.0
2016-May-01 14:32N 37°48' W 122°21'3 2.8
2016-May-01 13:33N 37°48' W 122°24'0 0.3
2016-May-01 12:33N 37°49' W 122°24'0 0.0
2016-May-01 11:33N 37°49' W 122°24'0 0.0
2016-May-01 10:33N 37°49' W 122°24'3 3.1
2016-May-01 09:34N 37°48' W 122°20'0 0.1
2016-May-01 08:33N 37°48' W 122°21'0 0.0
2016-May-01 07:33N 37°48' W 122°21'0 0.0
2016-May-01 06:33N 37°48' W 122°21'0 0.0
2016-May-01 05:33N 37°48' W 122°21'0 0.0
2016-May-01 04:33N 37°48' W 122°21'0 0.0
2016-May-01 03:33N 37°48' W 122°21'2 2.0
2016-May-01 02:33N 37°48' W 122°18'1 0.9
2016-May-01 01:33N 37°48' W 122°19'0 0.0
2016-May-01 00:33N 37°48' W 122°19'2 1.5
2016-Apr-30 23:33N 37°49' W 122°19'0 0.0
2016-Apr-30 22:33N 37°49' W 122°19'0 0.0
2016-Apr-30 21:33N 37°49' W 122°19'0 0.0
2016-Apr-30 20:33N 37°49' W 122°19'0 0.0
2016-Apr-30 19:33N 37°49' W 122°19'0 0.0
2016-Apr-30 18:32N 37°49' W 122°19'0 0.0
2016-Apr-30 17:33N 37°49' W 122°19'0 0.0
2016-Apr-30 16:33N 37°49' W 122°19'0 0.0
2016-Apr-30 15:32N 37°49' W 122°19'0 0.0
2016-Apr-30 14:33N 37°49' W 122°19'0 0.0
2016-Apr-30 13:33N 37°49' W 122°19'1 1.5
2016-Apr-30 12:33N 37°49' W 122°20'2 1.6
2016-Apr-30 11:33N 37°48' W 122°22'3 3.0
2016-Apr-30 10:33N 37°49' W 122°19'0 0.0
2016-Apr-30 09:33N 37°49' W 122°19'0 0.0
2016-Apr-30 08:33N 37°49' W 122°19'0 0.0
2016-Apr-30 07:33N 37°49' W 122°19'0 0.0
2016-Apr-30 06:33N 37°49' W 122°19'0 0.0
2016-Apr-30 05:33N 37°49' W 122°19'0 0.0
2016-Apr-30 04:33N 37°49' W 122°19'0 0.0
2016-Apr-30 03:33N 37°49' W 122°19'0 0.0
2016-Apr-30 02:33N 37°49' W 122°19'0 0.0
2016-Apr-30 01:33N 37°49' W 122°19'7 6.7
2016-Apr-30 00:33N 37°54' W 122°25'3 2.7
2016-Apr-29 23:33N 37°55' W 122°22'3 2.4
2016-Apr-29 22:15N 37°54' W 122°25'2 3.0
2016-Apr-29 21:33N 37°52' W 122°24'5 4.7
2016-Apr-29 20:33N 37°49' W 122°19'0 0.0
2016-Apr-29 19:32N 37°49' W 122°19'0 0.0
2016-Apr-29 18:33N 37°49' W 122°19'0 0.0
2016-Apr-29 17:33N 37°49' W 122°19'0 0.0
2016-Apr-29 16:30N 37°49' W 122°19'0 0.0
2016-Apr-29 13:33N 37°49' W 122°19'0 0.0
2016-Apr-29 12:32N 37°49' W 122°19'0 0.0
2016-Apr-29 11:33N 37°49' W 122°19'0 0.0
2016-Apr-29 10:33N 37°49' W 122°19'0 0.0
2016-Apr-29 09:33N 37°49' W 122°19'0 0.0
2016-Apr-29 08:33N 37°49' W 122°19'0 0.0
2016-Apr-29 07:33N 37°49' W 122°19'0 0.0
2016-Apr-29 06:33N 37°49' W 122°19'0 0.0
2016-Apr-29 05:33N 37°49' W 122°19'0 0.0
2016-Apr-29 04:33N 37°49' W 122°19'0 0.0
2016-Apr-29 03:33N 37°49' W 122°19'0 0.0
2016-Apr-29 02:33N 37°49' W 122°19'0 0.0
2016-Apr-29 01:33N 37°49' W 122°19'0 0.0
2016-Apr-29 00:33N 37°49' W 122°19'2 1.6
2016-Apr-28 23:33N 37°48' W 122°19'1 0.6
2016-Apr-28 22:34N 37°48' W 122°20'2 1.7
2016-Apr-28 21:33N 37°49' W 122°19'0 0.0
2016-Apr-28 20:33N 37°49' W 122°19'0 0.0
2016-Apr-28 19:33N 37°49' W 122°19'0 0.0
2016-Apr-28 18:33N 37°49' W 122°19'0 0.0
2016-Apr-28 17:33N 37°49' W 122°19'0 0.0
2016-Apr-28 16:33N 37°49' W 122°19'0 0.0
2016-Apr-28 15:33N 37°49' W 122°19'0 0.0
2016-Apr-28 14:33N 37°49' W 122°19'0 0.0
2016-Apr-28 13:33N 37°49' W 122°19'0 0.0
2016-Apr-28 12:33N 37°49' W 122°19'0 0.0
2016-Apr-28 11:33N 37°49' W 122°19'0 0.0
2016-Apr-28 10:33N 37°49' W 122°19'0 0.0
2016-Apr-28 09:33N 37°49' W 122°19'0 0.0
2016-Apr-28 08:33N 37°49' W 122°19'0 0.0
2016-Apr-28 07:33N 37°49' W 122°19'0 0.0
2016-Apr-28 06:33N 37°49' W 122°19'0 0.0
2016-Apr-28 05:33N 37°49' W 122°19'0 0.0
2016-Apr-28 04:33N 37°49' W 122°19'2 1.6
2016-Apr-28 03:33N 37°48' W 122°19'2 1.9
2016-Apr-28 02:33N 37°48' W 122°21'1 0.8
2016-Apr-28 01:33N 37°48' W 122°20'1 0.6
2016-Apr-28 00:33N 37°48' W 122°20'2 1.6
2016-Apr-27 23:33N 37°49' W 122°19'0 0.0
2016-Apr-27 22:33N 37°49' W 122°19'0 0.0
2016-Apr-27 21:33N 37°49' W 122°19'0 0.0
2016-Apr-27 20:33N 37°49' W 122°19'0 0.0
2016-Apr-27 19:33N 37°49' W 122°19'0 0.0
2016-Apr-27 18:33N 37°49' W 122°19'0 0.0
2016-Apr-27 17:33N 37°49' W 122°19'2 1.5
2016-Apr-27 16:33N 37°48' W 122°19'1 0.7
2016-Apr-27 15:33N 37°48' W 122°19'1 0.9
2016-Apr-27 14:33N 37°48' W 122°20'1 0.9
2016-Apr-27 13:33N 37°48' W 122°19'0 0.2
2016-Apr-27 12:33N 37°48' W 122°19'1 1.1
2016-Apr-27 11:33N 37°48' W 122°17'2 2.4
2016-Apr-27 10:33N 37°49' W 122°20'0 0.0
2016-Apr-27 09:33N 37°49' W 122°20'0 0.0
2016-Apr-27 08:33N 37°49' W 122°20'0 0.0
2016-Apr-27 07:33N 37°49' W 122°20'0 0.0
2016-Apr-27 06:33N 37°49' W 122°20'0 0.0
2016-Apr-27 05:33N 37°49' W 122°20'0 0.0
2016-Apr-27 04:33N 37°49' W 122°20'0 0.0
2016-Apr-27 03:33N 37°49' W 122°20'1 0.7
2016-Apr-27 02:33N 37°48' W 122°20'1 1.4
2016-Apr-27 01:33N 37°48' W 122°18'0 0.4
2016-Apr-27 00:33N 37°48' W 122°19'0 0.1
2016-Apr-26 23:33N 37°48' W 122°19'1 1.2
2016-Apr-26 22:33N 37°48' W 122°20'1 0.7
2016-Apr-26 21:33N 37°49' W 122°20'0 0.0
2016-Apr-26 20:33N 37°49' W 122°20'0 0.0
2016-Apr-26 19:33N 37°49' W 122°20'0 0.0
2016-Apr-26 18:33N 37°49' W 122°20'0 0.0
2016-Apr-26 17:33N 37°49' W 122°20'0 0.0
2016-Apr-26 16:33N 37°49' W 122°20'1 0.5
2016-Apr-26 15:33N 37°48' W 122°21'2 1.7
2016-Apr-26 14:34N 37°48' W 122°19'1 1.2
2016-Apr-26 13:33N 37°49' W 122°20'1 0.8
2016-Apr-26 12:33N 37°48' W 122°20'1 0.7
2016-Apr-26 11:33N 37°48' W 122°19'0 0.0
2016-Apr-26 10:33N 37°48' W 122°19'0 0.0
2016-Apr-26 09:33N 37°48' W 122°19'0 0.1
2016-Apr-26 08:33N 37°48' W 122°19'1 0.6
2016-Apr-26 07:33N 37°48' W 122°19'2 1.7
2016-Apr-26 06:33N 37°49' W 122°19'0 0.0
2016-Apr-26 05:33N 37°49' W 122°19'0 0.0
2016-Apr-26 04:33N 37°49' W 122°19'0 0.0
2016-Apr-26 03:33N 37°49' W 122°19'0 0.0
2016-Apr-26 02:33N 37°49' W 122°19'2 1.6
2016-Apr-26 01:33N 37°48' W 122°19'1 1.3
2016-Apr-26 00:34N 37°49' W 122°20'1 1.1
2016-Apr-25 23:33N 37°49' W 122°19'0 0.0
2016-Apr-25 22:33N 37°49' W 122°19'1 1.2
2016-Apr-25 21:33N 37°49' W 122°20'  

Dump ship's entire track history